Time;durP1;ratioP1;P1;durP2;ratioP2;P2;SDS_P1;SDS_P2;PMS_P1;PMS_P2;Temp;Humidity;BMP_temperature;BMP_pressure;BME280_temperature;BME280_humidity;BME280_pressure;Samples;Min_cycle;Max_cycle;Signal;HPM_P1;HPM_P2
2023/07/25 00:00:31;;;;;;;13.25;9.15;;;;;;;26.32;54.51;99392.50;5127616;27;20320;-64
2023/07/25 00:02:56;;;;;;;13.55;10.02;;;;;;;26.28;55.19;99388.69;5130304;27;20089;-63
2023/07/25 00:05:22;;;;;;;14.10;9.25;;;;;;;26.16;54.95;99399.00;5125792;27;20084;-63
2023/07/25 00:07:47;;;;;;;15.32;9.48;;;;;;;26.16;54.80;99407.16;5126501;27;20084;-63
2023/07/25 00:10:13;;;;;;;16.10;9.07;;;;;;;26.12;55.18;99405.25;5132168;27;20031;-63
2023/07/25 00:12:38;;;;;;;14.82;9.77;;;;;;;26.01;54.67;99407.97;5128357;27;20237;-63
2023/07/25 00:15:05;;;;;;;14.45;9.32;;;;;;;26.03;52.87;99411.22;5122147;27;20039;-63
2023/07/25 00:17:30;;;;;;;15.40;9.93;;;;;;;26.00;52.90;99408.19;5125889;27;20039;-63
2023/07/25 00:19:56;;;;;;;16.60;10.05;;;;;;;26.14;53.21;99397.66;5124807;27;20137;-63
2023/07/25 00:22:21;;;;;;;15.98;9.60;;;;;;;26.19;52.54;99397.66;5122631;27;20413;-63
2023/07/25 00:24:47;;;;;;;14.52;10.02;;;;;;;26.23;52.56;99388.69;5122798;27;20031;-63
2023/07/25 00:27:12;;;;;;;18.00;10.13;;;;;;;26.19;54.25;99393.03;5123696;27;20045;-63
2023/07/25 00:29:38;;;;;;;14.40;9.73;;;;;;;26.19;55.64;99400.34;5125303;27;20341;-63
2023/07/25 00:32:03;;;;;;;17.40;10.45;;;;;;;26.13;56.25;99396.84;5125798;27;20035;-63
2023/07/25 00:34:29;;;;;;;15.55;10.50;;;;;;;25.98;56.13;99396.81;5120855;27;20051;-63
2023/07/25 00:36:54;;;;;;;15.27;9.70;;;;;;;25.99;56.65;99395.72;5121659;27;20027;-63
2023/07/25 00:39:20;;;;;;;17.15;10.63;;;;;;;25.83;57.37;99404.94;5121417;27;20042;-63
2023/07/25 00:41:45;;;;;;;16.85;10.75;;;;;;;25.86;55.79;99402.50;5121092;27;20028;-63
2023/07/25 00:44:11;;;;;;;14.93;10.50;;;;;;;25.86;55.04;99402.50;5120647;27;20305;-63
2023/07/25 00:46:36;;;;;;;15.38;10.32;;;;;;;25.91;54.63;99407.94;5124752;27;20035;-63
2023/07/25 00:49:04;;;;;;;15.35;10.02;;;;;;;25.91;53.99;99409.81;5124476;27;20043;-63
2023/07/25 00:51:30;;;;;;;18.02;10.30;;;;;;;25.75;54.64;99403.56;5121993;27;20356;-63
2023/07/25 00:53:56;;;;;;;15.07;9.75;;;;;;;25.58;55.51;99411.94;5125650;27;20083;-63
2023/07/25 00:56:21;;;;;;;18.65;11.20;;;;;;;25.66;55.38;99413.31;5124032;27;20039;-63
2023/07/25 00:58:47;;;;;;;20.45;10.27;;;;;;;25.72;55.23;99413.06;5122352;27;20035;-63
2023/07/25 01:01:13;;;;;;;15.85;10.30;;;;;;;25.70;55.65;99412.53;5123415;27;20051;-63
2023/07/25 01:03:39;;;;;;;17.83;10.77;;;;;;;25.70;55.64;99406.28;5121083;27;20074;-63
2023/07/25 01:06:11;;;;;;;14.88;10.02;;;;;;;25.77;55.94;99409.53;5126413;27;20039;-63
2023/07/25 01:08:53;;;;;;;15.35;9.90;;;;;;;25.77;56.09;99406.84;5121808;27;20035;-63
2023/07/25 01:11:20;;;;;;;16.02;10.38;;;;;;;25.82;56.06;99400.59;5125651;27;20325;-63
2023/07/25 01:13:46;;;;;;;18.73;11.48;;;;;;;25.66;56.20;99403.28;5125449;27;20341;-63
2023/07/25 01:16:15;;;;;;;17.27;11.73;;;;;;;25.60;55.55;99411.66;5125350;27;20030;-63
2023/07/25 01:18:43;;;;;;;17.40;10.27;;;;;;;25.54;55.77;99410.84;5121194;27;20057;-63
2023/07/25 01:21:09;;;;;;;15.63;10.95;;;;;;;25.40;56.23;99415.94;5123551;27;20035;-63
2023/07/25 01:23:36;;;;;;;15.75;9.88;;;;;;;25.49;56.74;99410.00;5123207;27;20429;-63
2023/07/25 01:26:02;;;;;;;16.63;10.15;;;;;;;25.61;56.26;99414.09;5124275;27;20039;-63
2023/07/25 01:28:28;;;;;;;17.40;11.07;;;;;;;25.60;56.45;99422.50;5124058;27;20078;-63
2023/07/25 01:30:54;;;;;;;15.07;10.13;;;;;;;25.62;56.90;99420.34;5124819;27;20031;-63
2023/07/25 01:33:19;;;;;;;15.70;10.43;;;;;;;25.71;57.39;99424.19;5122564;27;20348;-64
2023/07/25 01:35:44;;;;;;;14.48;9.45;;;;;;;25.73;57.25;99422.00;5119427;27;20034;-63
2023/07/25 01:38:10;;;;;;;14.98;9.98;;;;;;;25.61;57.01;99419.53;5123244;27;20046;-63
2023/07/25 01:40:39;;;;;;;17.05;10.52;;;;;;;25.58;57.65;99414.63;5105077;28;20039;-63
2023/07/25 01:43:05;;;;;;;15.80;10.32;;;;;;;25.53;57.44;99414.63;5120703;28;20036;-63
2023/07/25 01:45:30;;;;;;;15.45;10.07;;;;;;;25.53;58.31;99416.53;5124143;28;20069;-63
2023/07/25 01:47:56;;;;;;;16.73;10.10;;;;;;;25.50;58.77;99422.47;5123803;28;20039;-63
2023/07/25 01:50:22;;;;;;;20.17;10.80;;;;;;;25.45;58.27;99421.38;5122436;28;20031;-63
2023/07/25 01:52:47;;;;;;;17.75;10.55;;;;;;;25.40;58.44;99417.84;5119398;28;20093;-63
2023/07/25 01:55:13;;;;;;;13.77;9.60;;;;;;;25.43;59.00;99417.31;5121243;28;20030;-63
2023/07/25 01:57:38;;;;;;;15.15;10.23;;;;;;;25.46;59.08;99412.16;5123789;28;20318;-63
2023/07/25 02:00:04;;;;;;;14.80;10.32;;;;;;;25.42;58.50;99413.78;5120080;28;20321;-63
2023/07/25 02:02:30;;;;;;;15.43;10.45;;;;;;;25.31;58.87;99414.84;5122663;28;20046;-63
2023/07/25 02:04:55;;;;;;;18.15;10.43;;;;;;;25.29;59.17;99414.28;5121692;28;20032;-63
2023/07/25 02:07:21;;;;;;;17.35;10.35;;;;;;;25.22;59.98;99424.56;5121047;28;20023;-63
2023/07/25 02:09:46;;;;;;;15.13;10.70;;;;;;;25.09;61.47;99435.91;5121056;28;20058;-63
2023/07/25 02:12:11;;;;;;;16.00;10.93;;;;;;;24.94;62.18;99435.75;5120656;28;20027;-63
2023/07/25 02:14:37;;;;;;;18.42;10.75;;;;;;;25.05;61.65;99424.78;5118910;28;20031;-63
2023/07/25 02:17:02;;;;;;;14.57;10.13;;;;;;;25.12;61.51;99435.38;5121281;28;20207;-63
2023/07/25 02:19:28;;;;;;;18.33;11.40;;;;;;;25.11;61.77;99434.56;5124127;28;20238;-63
2023/07/25 02:21:53;;;;;;;16.58;10.50;;;;;;;25.12;61.42;99428.06;5123226;28;20269;-63
2023/07/25 02:24:18;;;;;;;14.85;9.88;;;;;;;25.08;61.89;99436.97;5120513;28;20039;-63
2023/07/25 02:26:44;;;;;;;16.08;10.35;;;;;;;25.06;61.50;99439.13;5122656;28;20043;-63
2023/07/25 02:29:09;;;;;;;17.88;10.60;;;;;;;25.06;61.79;99444.56;5124652;28;20231;-63
2023/07/25 02:31:35;;;;;;;14.48;10.35;;;;;;;25.03;61.74;99437.75;5104062;28;20375;-63
2023/07/25 02:34:01;;;;;;;16.67;10.18;;;;;;;24.93;61.58;99434.94;5122577;28;20088;-63
2023/07/25 02:36:27;;;;;;;14.30;10.55;;;;;;;24.96;62.51;99431.72;5119840;28;20037;-63
2023/07/25 02:38:52;;;;;;;16.50;10.68;;;;;;;24.93;62.95;99439.53;5124110;27;20362;-63
2023/07/25 02:41:17;;;;;;;15.73;10.23;;;;;;;24.95;63.21;99435.50;5125556;27;20036;-63
2023/07/25 02:43:43;;;;;;;24.48;10.70;;;;;;;24.87;62.80;99438.72;5124266;27;20345;-63
2023/07/25 02:46:08;;;;;;;26.25;11.07;;;;;;;24.74;63.47;99434.56;5125662;27;20328;-63
2023/07/25 02:48:34;;;;;;;19.50;11.10;;;;;;;24.82;63.50;99435.97;5127560;27;20038;-63
2023/07/25 02:50:59;;;;;;;21.13;10.55;;;;;;;24.84;62.57;99440.03;5130933;27;20039;-63
2023/07/25 02:53:24;;;;;;;18.67;11.00;;;;;;;24.73;62.31;99448.38;5128427;27;20051;-63
2023/07/25 02:55:50;;;;;;;16.08;10.82;;;;;;;24.58;63.29;99443.69;5124762;27;20035;-63
2023/07/25 02:58:16;;;;;;;16.38;9.73;;;;;;;24.65;63.29;99441.56;5127650;27;20037;-63
2023/07/25 03:00:41;;;;;;;18.52;11.02;;;;;;;24.73;61.87;99446.47;5122563;27;20050;-63
2023/07/25 03:03:07;;;;;;;19.35;11.70;;;;;;;24.74;61.76;99444.59;5124000;27;20035;-63
2023/07/25 03:05:32;;;;;;;28.67;11.43;;;;;;;24.77;60.97;99447.59;5129193;27;20225;-63
2023/07/25 03:07:58;;;;;;;29.65;11.77;;;;;;;24.83;61.04;99449.25;5126034;27;20031;-63
2023/07/25 03:10:23;;;;;;;29.08;12.48;;;;;;;24.89;60.71;99450.09;5123704;27;20109;-63
2023/07/25 03:12:49;;;;;;;28.42;11.82;;;;;;;24.84;60.64;99450.88;5123693;27;20039;-63
2023/07/25 03:15:14;;;;;;;34.03;11.43;;;;;;;24.94;60.17;99450.13;5130458;27;20359;-63
2023/07/25 03:17:39;;;;;;;21.80;11.93;;;;;;;24.90;60.36;99450.91;5126635;27;20076;-63
2023/07/25 03:20:06;;;;;;;17.88;11.10;;;;;;;24.89;61.05;99454.69;5125506;27;20031;-63
2023/07/25 03:22:32;;;;;;;15.68;9.85;;;;;;;24.88;61.07;99453.06;5124424;27;20039;-63
2023/07/25 03:24:57;;;;;;;16.92;10.30;;;;;;;24.84;61.09;99452.78;5123502;27;20038;-63
2023/07/25 03:27:23;;;;;;;18.52;10.10;;;;;;;24.82;61.55;99466.56;5126354;27;20337;-63
2023/07/25 03:29:48;;;;;;;18.45;10.73;;;;;;;24.81;60.90;99467.66;5125193;27;20389;-63
2023/07/25 03:32:13;;;;;;;15.38;10.88;;;;;;;24.82;60.92;99466.56;5124515;27;20099;-63
2023/07/25 03:34:39;;;;;;;14.45;9.90;;;;;;;24.84;61.40;99464.41;5122898;27;20043;-63
2023/07/25 03:37:05;;;;;;;13.57;9.35;;;;;;;24.76;61.06;99466.81;5126397;27;20292;-63
2023/07/25 03:39:30;;;;;;;19.70;10.80;;;;;;;24.63;63.20;99459.97;5125325;27;20052;-63
2023/07/25 03:41:56;;;;;;;17.50;10.75;;;;;;;24.65;63.46;99459.69;5122962;27;20054;-63
2023/07/25 03:44:21;;;;;;;21.40;13.38;;;;;;;24.62;64.59;99457.50;5123835;27;20199;-63
2023/07/25 03:46:47;;;;;;;18.42;11.27;;;;;;;24.60;63.74;99457.78;5124121;27;20194;-63
2023/07/25 03:49:12;;;;;;;20.67;10.88;;;;;;;24.63;64.18;99454.53;5126719;27;20440;-63
2023/07/25 03:51:38;;;;;;;19.52;10.63;;;;;;;24.74;63.93;99448.13;5123653;27;20287;-63
2023/07/25 03:54:05;;;;;;;22.15;10.52;;;;;;;24.79;63.17;99450.03;5127600;27;20399;-63
2023/07/25 03:56:31;;;;;;;20.33;10.70;;;;;;;24.89;63.91;99452.81;5122018;27;20035;-64
2023/07/25 03:58:56;;;;;;;22.05;10.73;;;;;;;24.98;63.57;99447.75;5124892;27;20039;-63
2023/07/25 04:01:21;;;;;;;20.98;12.27;;;;;;;25.03;65.04;99458.63;5122713;27;20052;-63
2023/07/25 04:03:47;;;;;;;71.35;17.90;;;;;;;25.09;64.41;99452.16;5125989;27;20048;-63
2023/07/25 04:06:12;;;;;;;26.33;11.15;;;;;;;25.20;62.31;99461.13;5108222;27;20233;-63
2023/07/25 04:08:38;;;;;;;24.52;10.85;;;;;;;25.24;61.88;99456.81;5126116;27;20089;-63
2023/07/25 04:11:03;;;;;;;18.95;10.25;;;;;;;25.29;61.28;99454.13;5128353;27;20023;-63
2023/07/25 04:13:29;;;;;;;17.63;10.25;;;;;;;25.36;60.70;99449.28;5122498;27;20053;-63
2023/07/25 04:15:54;;;;;;;26.92;10.70;;;;;;;25.42;62.66;99462.56;5124329;27;20027;-63
2023/07/25 04:18:20;;;;;;;18.08;10.52;;;;;;;25.50;63.49;99461.25;5124957;27;20050;-63
2023/07/25 04:20:45;;;;;;;17.42;10.00;;;;;;;25.53;63.41;99455.28;5122396;27;20155;-63
2023/07/25 04:23:10;;;;;;;25.20;11.00;;;;;;;25.42;63.48;99451.72;5128289;27;20051;-63
2023/07/25 04:25:36;;;;;;;21.40;12.05;;;;;;;25.47;63.42;99445.50;5129085;27;20051;-63
2023/07/25 04:28:01;;;;;;;16.83;10.75;;;;;;;25.51;62.63;99462.88;5123770;27;20076;-64
2023/07/25 04:30:27;;;;;;;18.80;10.18;;;;;;;25.59;63.31;99465.06;5107686;27;20042;-63
2023/07/25 04:32:52;;;;;;;15.60;9.85;;;;;;;25.64;62.83;99456.13;5126399;27;20091;-63
2023/07/25 04:35:18;;;;;;;16.92;9.65;;;;;;;25.78;63.01;99462.69;5125242;27;20226;-64
2023/07/25 04:37:43;;;;;;;14.48;10.32;;;;;;;25.81;61.34;99461.34;5124977;27;20338;-63
2023/07/25 04:40:09;;;;;;;12.80;8.90;;;;;;;25.89;61.34;99461.63;5122765;27;20032;-63
2023/07/25 04:42:34;;;;;;;15.65;9.27;;;;;;;26.02;61.75;99457.63;5123914;27;20084;-63
2023/07/25 04:45:00;;;;;;;13.93;9.05;;;;;;;26.17;61.09;99456.81;5126759;27;20344;-63
2023/07/25 04:47:25;;;;;;;14.07;9.13;;;;;;;26.29;60.24;99468.19;5120929;27;20053;-63
2023/07/25 04:49:51;;;;;;;12.60;8.65;;;;;;;26.36;59.88;99474.22;5121161;27;20032;-63
2023/07/25 04:52:16;;;;;;;16.35;9.18;;;;;;;26.44;60.37;99464.69;5124727;27;20027;-64
2023/07/25 04:54:41;;;;;;;12.32;8.65;;;;;;;26.50;60.69;99464.41;5120768;27;20756;-64
2023/07/25 04:59:34;;;;;;;12.52;8.00;;;;;;;26.64;59.81;99462.78;5073638;28;20052;-62
2023/07/25 05:02:00;;;;;;;23.27;9.05;;;;;;;26.61;60.86;99463.31;5075303;28;20036;-62
2023/07/25 05:04:25;;;;;;;13.50;7.93;;;;;;;26.69;61.20;99460.03;5073611;28;20233;-62
2023/07/25 05:06:51;;;;;;;16.08;7.90;;;;;;;26.46;63.01;99455.19;5073913;28;20029;-62
2023/07/25 05:09:18;;;;;;;10.93;7.20;;;;;;;26.18;64.40;99455.72;5072380;28;20055;-62
2023/07/25 05:11:47;;;;;;;8.88;6.88;;;;;;;26.33;64.84;99448.41;5073736;28;20055;-62
2023/07/25 05:14:13;;;;;;;10.55;6.45;;;;;;;26.32;65.18;99448.66;5069615;28;20047;-62
2023/07/25 05:16:38;;;;;;;9.27;6.82;;;;;;;26.24;66.51;99450.03;5074314;28;20224;-62
2023/07/25 05:19:03;;;;;;;9.80;7.22;;;;;;;26.33;65.27;99463.88;5075365;28;20219;-62
2023/07/25 05:21:29;;;;;;;10.68;7.75;;;;;;;26.28;66.85;99464.69;5074415;28;20044;-63
2023/07/25 05:23:55;;;;;;;10.77;7.13;;;;;;;26.37;65.71;99465.78;5073826;28;20040;-63
2023/07/25 05:26:21;;;;;;;12.35;6.45;;;;;;;26.09;66.50;99469.81;5074742;28;20070;-63
2023/07/25 05:28:46;;;;;;;8.60;6.43;;;;;;;25.90;67.62;99465.16;5075985;28;20050;-63
2023/07/25 05:31:11;;;;;;;10.60;7.55;;;;;;;26.00;67.79;99462.47;5074789;28;20237;-62
2023/07/25 05:33:37;;;;;;;11.10;6.97;;;;;;;25.89;67.20;99466.25;5074044;28;20086;-62
2023/07/25 05:36:03;;;;;;;11.52;7.50;;;;;;;26.11;67.88;99461.41;5075972;28;20282;-62
2023/07/25 05:38:28;;;;;;;13.90;7.82;;;;;;;26.18;66.88;99466.56;5077192;28;20090;-62
2023/07/25 05:40:57;;;;;;;12.65;7.78;;;;;;;26.32;67.16;99463.06;5074294;28;20387;-62
2023/07/25 05:43:23;;;;;;;11.90;8.50;;;;;;;26.39;66.34;99458.19;5073996;28;20060;-63
2023/07/25 05:45:48;;;;;;;10.15;7.50;;;;;;;26.53;66.26;99449.47;5074647;28;20078;-63
2023/07/25 05:48:14;;;;;;;10.52;7.78;;;;;;;26.69;66.02;99449.19;5074287;28;20046;-62
2023/07/25 05:50:39;;;;;;;9.45;7.22;;;;;;;26.54;66.99;99464.69;5075058;28;20047;-62
2023/07/25 05:53:04;;;;;;;10.98;7.35;;;;;;;26.90;65.16;99460.81;5076817;28;20040;-63
2023/07/25 05:55:30;;;;;;;10.85;7.53;;;;;;;26.95;65.12;99457.28;5075288;28;20043;-63
2023/07/25 05:57:55;;;;;;;10.40;7.13;;;;;;;26.90;66.64;99460.81;5073373;28;20053;-62
2023/07/25 06:00:22;;;;;;;10.55;7.25;;;;;;;27.18;64.53;99462.13;5075391;28;20032;-63
2023/07/25 06:02:48;;;;;;;12.60;7.45;;;;;;;26.90;66.79;99460.00;5076715;28;20106;-62
2023/07/25 06:05:13;;;;;;;9.82;6.55;;;;;;;26.98;65.61;99459.47;5073624;28;20048;-63
2023/07/25 06:07:38;;;;;;;9.52;6.63;;;;;;;26.99;66.63;99451.03;5073871;28;20032;-62
2023/07/25 06:10:05;;;;;;;9.10;6.75;;;;;;;27.26;66.11;99445.25;5073420;28;20334;-62
2023/07/25 06:12:30;;;;;;;13.15;7.75;;;;;;;27.48;66.10;99449.50;5074729;28;20102;-62
2023/07/25 06:14:56;;;;;;;10.57;7.68;;;;;;;27.64;64.58;99438.28;5067258;28;20041;-62
2023/07/25 06:17:21;;;;;;;10.63;8.40;;;;;;;27.83;63.98;99441.16;5063492;28;20058;-62
2023/07/25 06:19:46;;;;;;;11.32;8.50;;;;;;;27.73;63.35;99437.69;5063979;28;20052;-63
2023/07/25 06:22:12;;;;;;;12.07;9.20;;;;;;;27.84;62.87;99434.63;5063717;28;20051;-62
2023/07/25 06:24:37;;;;;;;15.20;10.00;;;;;;;27.87;63.17;99428.59;5062442;28;20251;-63
2023/07/25 06:27:03;;;;;;;12.38;9.00;;;;;;;28.14;62.81;99439.03;5062690;28;20364;-62
2023/07/25 06:29:28;;;;;;;13.68;9.70;;;;;;;28.24;62.52;99427.28;5062513;28;20103;-63
2023/07/25 06:31:54;;;;;;;15.98;10.07;;;;;;;28.39;62.50;99421.69;5063340;28;20249;-62
2023/07/25 06:34:19;;;;;;;13.93;9.48;;;;;;;28.80;63.00;99421.28;5062497;28;20049;-62
2023/07/25 06:36:45;;;;;;;10.88;8.43;;;;;;;28.34;62.20;99418.22;5063065;28;20041;-62
2023/07/25 06:39:10;;;;;;;11.70;9.25;;;;;;;28.54;60.86;99407.94;5062688;28;20162;-62
2023/07/25 06:41:35;;;;;;;13.73;8.38;;;;;;;28.48;62.31;99409.09;5062744;28;20044;-62
2023/07/25 06:44:01;;;;;;;10.40;7.28;;;;;;;28.81;61.40;99409.28;5063180;28;20037;-63
2023/07/25 06:46:26;;;;;;;9.85;7.80;;;;;;;29.06;57.78;99405.47;5062932;28;20045;-63
2023/07/25 06:48:52;;;;;;;10.73;7.60;;;;;;;29.07;57.16;99407.91;5062450;28;20123;-62
2023/07/25 06:51:20;;;;;;;10.65;8.05;;;;;;;29.02;57.31;99409.88;5062409;28;20037;-63
2023/07/25 06:53:45;;;;;;;12.27;8.10;;;;;;;29.40;56.00;99405.31;5064967;28;20040;-63
2023/07/25 06:56:11;;;;;;;11.90;8.30;;;;;;;29.32;56.62;99403.25;5061548;28;20218;-62
2023/07/25 06:58:36;;;;;;;12.80;7.80;;;;;;;29.64;55.34;99397.09;5063415;28;20049;-63
2023/07/25 07:01:02;;;;;;;13.63;7.85;;;;;;;29.62;55.41;99391.13;5062498;28;20032;-63
2023/07/25 07:03:27;;;;;;;11.38;8.55;;;;;;;29.79;53.85;99394.13;5062772;28;20028;-62
2023/07/25 07:05:54;;;;;;;9.82;8.18;;;;;;;30.23;52.14;99388.25;5046784;28;20045;-63
2023/07/25 07:08:20;;;;;;;11.52;8.15;;;;;;;30.36;52.03;99392.94;5062924;28;20043;-62
2023/07/25 07:10:46;;;;;;;10.30;7.40;;;;;;;30.23;51.35;99392.91;5064085;28;20261;-62
2023/07/25 07:13:11;;;;;;;8.65;7.10;;;;;;;30.39;51.86;99388.78;5062264;28;20784;-62
2023/07/25 07:15:36;;;;;;;9.13;7.65;;;;;;;30.40;50.65;99383.03;5063028;28;20037;-62
2023/07/25 07:18:02;;;;;;;11.52;7.70;;;;;;;30.33;51.14;99385.34;5061560;28;20033;-63
2023/07/25 07:20:27;;;;;;;10.25;8.13;;;;;;;30.56;49.58;99378.09;5064144;28;20032;-62
2023/07/25 07:22:53;;;;;;;8.63;6.95;;;;;;;30.68;48.31;99383.09;5062015;28;20219;-63
2023/07/25 07:25:18;;;;;;;9.88;8.30;;;;;;;30.52;48.81;99377.06;5063908;28;20792;-63
2023/07/25 07:27:43;;;;;;;10.38;8.02;;;;;;;30.47;49.10;99379.91;5059179;28;20029;-62
2023/07/25 07:30:09;;;;;;;12.93;8.05;;;;;;;30.56;49.30;99367.16;5062659;28;20032;-63
2023/07/25 07:32:34;;;;;;;10.88;7.78;;;;;;;30.99;47.32;99362.22;5063449;28;20045;-63
2023/07/25 07:35:00;;;;;;;9.60;7.78;;;;;;;30.87;47.50;99363.84;5061966;28;20041;-62
2023/07/25 07:37:25;;;;;;;10.18;7.72;;;;;;;30.96;46.37;99346.41;5062531;28;20036;-62
2023/07/25 07:39:51;;;;;;;14.07;8.23;;;;;;;31.46;44.08;99345.66;5062702;28;20041;-62
2023/07/25 07:42:16;;;;;;;9.65;8.00;;;;;;;30.93;45.18;99344.28;5061743;28;20069;-62
2023/07/25 07:44:41;;;;;;;10.40;8.07;;;;;;;30.93;46.67;99333.34;5063519;28;20036;-63
2023/07/25 07:47:07;;;;;;;11.23;8.20;;;;;;;31.30;46.64;99323.31;5066417;28;20040;-63
2023/07/25 07:49:34;;;;;;;10.70;8.55;;;;;;;31.52;44.72;99328.00;5062881;28;20199;-63
2023/07/25 07:51:59;;;;;;;9.80;8.00;;;;;;;31.36;46.61;99324.81;5059681;28;20068;-62
2023/07/25 07:54:24;;;;;;;13.30;8.77;;;;;;;31.56;44.35;99323.50;5058753;28;20037;-63
2023/07/25 07:56:50;;;;;;;11.25;8.35;;;;;;;31.94;46.32;99321.22;5059595;28;20229;-63
2023/07/25 07:59:15;;;;;;;9.95;7.97;;;;;;;32.26;44.25;99331.13;5059894;28;20342;-63
2023/07/25 08:01:41;;;;;;;10.63;8.48;;;;;;;31.80;45.90;99317.75;5059563;28;20046;-62
2023/07/25 08:04:06;;;;;;;13.52;8.15;;;;;;;32.27;44.89;99314.38;5061302;28;20044;-62
2023/07/25 08:06:31;;;;;;;11.90;8.73;;;;;;;32.65;44.40;99314.66;5060276;28;20074;-63
2023/07/25 08:08:57;;;;;;;11.05;8.30;;;;;;;32.93;44.26;99309.75;5058896;28;20277;-62
2023/07/25 08:11:22;;;;;;;10.10;9.02;;;;;;;32.81;43.55;99303.28;5059419;28;20371;-63
2023/07/25 08:13:48;;;;;;;11.88;8.05;;;;;;;33.05;43.02;99292.66;5060277;28;20050;-63
2023/07/25 08:16:13;;;;;;;10.90;8.18;;;;;;;32.83;43.01;99299.09;5059859;28;20036;-63
2023/07/25 08:18:38;;;;;;;12.23;8.63;;;;;;;33.05;42.33;99289.91;5059270;28;20045;-63
2023/07/25 08:21:04;;;;;;;9.27;7.93;;;;;;;32.74;43.30;99291.94;5060851;28;20032;-63
2023/07/25 08:23:30;;;;;;;11.07;8.55;;;;;;;32.58;44.04;99286.91;5058295;28;20334;-63
2023/07/25 08:25:56;;;;;;;9.90;8.27;;;;;;;32.76;43.85;99292.44;5060431;28;20293;-63
2023/07/25 08:28:22;;;;;;;10.85;7.88;;;;;;;33.13;43.61;99283.63;5061259;28;20125;-63
2023/07/25 08:30:47;;;;;;;10.73;7.97;;;;;;;33.15;42.76;99288.78;5059513;28;20025;-63
2023/07/25 08:33:15;;;;;;;9.95;8.25;;;;;;;33.25;42.65;99272.81;5062688;28;20037;-63
2023/07/25 08:35:43;;;;;;;12.60;8.52;;;;;;;33.15;42.71;99272.34;5057671;28;20107;-63
2023/07/25 08:38:08;;;;;;;12.80;9.65;;;;;;;33.08;43.07;99272.00;5056524;28;20080;-63
2023/07/25 08:40:34;;;;;;;9.80;8.43;;;;;;;33.16;43.54;99261.03;5057307;28;20219;-63
2023/07/25 08:43:07;;;;;;;12.00;8.27;;;;;;;33.26;42.21;99270.88;5057615;28;20040;-63
2023/07/25 08:45:34;;;;;;;13.05;8.20;;;;;;;33.12;44.24;99260.06;5058772;28;20036;-63
2023/07/25 08:48:04;;;;;;;9.02;7.63;;;;;;;32.93;43.77;99256.84;5057669;28;20334;-63
2023/07/25 08:50:31;;;;;;;12.45;8.80;;;;;;;33.05;44.05;99247.97;5057743;28;20052;-63
2023/07/25 08:52:59;;;;;;;12.45;8.77;;;;;;;32.81;43.93;99240.22;5057360;28;20043;-63
2023/07/25 08:55:26;;;;;;;14.82;8.85;;;;;;;32.85;45.65;99241.19;5057623;28;20024;-63
2023/07/25 08:57:52;;;;;;;11.23;8.20;;;;;;;33.04;44.40;99235.38;5056851;28;20045;-63
2023/07/25 09:00:18;;;;;;;11.20;8.90;;;;;;;32.90;44.57;99238.28;5057354;28;20056;-63
2023/07/25 09:02:44;;;;;;;10.88;7.82;;;;;;;33.01;40.98;99237.63;5057581;28;20078;-63
2023/07/25 09:05:09;;;;;;;12.38;9.00;;;;;;;33.07;42.82;99243.78;5057551;28;20052;-63
2023/07/25 09:07:35;;;;;;;12.40;8.70;;;;;;;32.53;46.12;99236.91;5057697;28;20040;-62
2023/07/25 09:10:00;;;;;;;18.75;9.32;;;;;;;32.70;44.15;99232.25;5057267;28;20032;-63
2023/07/25 09:12:26;;;;;;;10.88;8.25;;;;;;;32.76;40.93;99234.84;5057787;28;20037;-63
2023/07/25 09:14:52;;;;;;;12.52;8.57;;;;;;;32.76;43.89;99226.63;5057110;28;20321;-63
2023/07/25 09:17:18;;;;;;;11.32;8.10;;;;;;;32.19;44.52;99230.16;5057177;28;20029;-63
2023/07/25 09:19:43;;;;;;;12.57;8.85;;;;;;;32.43;45.55;99226.25;5057341;28;20330;-63
2023/07/25 09:22:28;;;;;;;9.45;7.78;;;;;;;32.66;44.48;99225.00;5057509;28;20037;-63
2023/07/25 09:24:54;;;;;;;9.25;8.07;;;;;;;32.56;44.00;99220.63;5057809;28;20067;-63
2023/07/25 09:27:19;;;;;;;12.32;8.10;;;;;;;32.41;42.44;99223.84;5057027;28;20036;-63
2023/07/25 09:29:49;;;;;;;10.05;8.10;;;;;;;32.42;43.35;99214.47;5056933;28;20040;-63
2023/07/25 09:32:23;;;;;;;10.77;8.20;;;;;;;32.39;44.19;99206.91;5056925;28;20033;-62
2023/07/25 09:35:05;;;;;;;9.75;7.90;;;;;;;32.28;45.18;99206.41;5057361;28;20104;-63
2023/07/25 09:37:32;;;;;;;14.10;9.45;;;;;;;32.51;43.89;99198.88;5057112;28;20040;-63
2023/07/25 09:39:58;;;;;;;11.98;8.85;;;;;;;32.46;44.25;99192.72;5056973;28;20033;-63
2023/07/25 09:42:25;;;;;;;12.07;8.45;;;;;;;32.28;43.36;99192.69;5056864;28;20521;-63
2023/07/25 09:44:51;;;;;;;10.10;8.40;;;;;;;32.47;43.44;99186.94;5056923;28;20086;-64
2023/07/25 09:47:25;;;;;;;11.68;8.27;;;;;;;32.56;43.03;99195.16;5057095;28;20045;-63
2023/07/25 09:49:53;;;;;;;11.60;8.35;;;;;;;32.41;41.08;99190.13;5056361;28;20349;-63
2023/07/25 09:52:19;;;;;;;12.88;8.35;;;;;;;32.39;40.05;99193.19;5056772;28;20330;-63
2023/07/25 09:54:44;;;;;;;11.05;7.80;;;;;;;32.50;41.12;99188.22;5057491;28;20160;-63
2023/07/25 09:57:10;;;;;;;11.77;8.10;;;;;;;32.44;37.37;99193.06;5057540;28;20037;-63
2023/07/25 09:59:36;;;;;;;13.90;7.95;;;;;;;32.43;38.63;99185.97;5057157;28;20064;-63
2023/07/25 10:02:02;;;;;;;11.95;8.20;;;;;;;32.57;36.77;99177.59;5057022;28;20379;-63
2023/07/25 10:04:28;;;;;;;11.38;8.02;;;;;;;32.59;34.99;99178.88;5057228;28;20037;-63
2023/07/25 10:06:53;;;;;;;12.00;8.60;;;;;;;32.68;36.84;99178.88;5057533;28;20230;-64
2023/07/25 10:09:19;;;;;;;11.98;8.23;;;;;;;32.57;36.06;99166.63;5057543;28;20040;-64
2023/07/25 10:11:46;;;;;;;12.23;8.80;;;;;;;32.67;36.78;99169.06;5057142;28;20039;-64
2023/07/25 10:14:13;;;;;;;12.25;7.72;;;;;;;32.72;33.68;99171.63;5056983;28;20109;-64
2023/07/25 10:16:40;;;;;;;11.98;8.30;;;;;;;32.77;36.35;99171.50;5057854;28;20094;-64
2023/07/25 10:19:06;;;;;;;10.00;8.05;;;;;;;32.77;35.71;99157.78;5056942;28;20250;-64
2023/07/25 10:21:52;;;;;;;12.95;9.30;;;;;;;32.73;38.18;99145.84;5057401;28;20079;-63
2023/07/25 10:24:20;;;;;;;15.30;9.43;;;;;;;32.72;38.70;99144.22;5056652;28;20576;-64
2023/07/25 10:27:00;;;;;;;13.18;8.77;;;;;;;32.71;37.34;99150.84;5056578;28;20120;-63
2023/07/25 10:29:48;;;;;;;11.60;8.27;;;;;;;32.80;39.11;99148.91;5056742;28;20152;-62
2023/07/25 10:32:15;;;;;;;14.15;9.02;;;;;;;32.82;37.59;99132.97;5056115;28;20037;-64
2023/07/25 10:34:52;;;;;;;12.18;8.95;;;;;;;32.88;37.74;99134.41;5056674;28;20045;-64
2023/07/25 10:37:22;;;;;;;11.88;8.25;;;;;;;33.01;40.16;99122.44;5041119;28;20021;-64
2023/07/25 10:40:03;;;;;;;12.15;8.27;;;;;;;32.94;38.23;99127.63;5039745;28;20041;-63
2023/07/25 10:42:43;;;;;;;15.95;9.63;;;;;;;33.03;38.86;99118.56;5035332;28;20405;-63
2023/07/25 10:45:41;;;;;;;14.07;9.10;;;;;;;33.11;38.93;99110.31;5035866;28;20380;-63
2023/07/25 10:48:29;;;;;;;10.73;8.10;;;;;;;33.13;38.07;99110.00;5034800;28;20334;-63
2023/07/25 10:50:54;;;;;;;11.95;8.30;;;;;;;33.19;38.28;99095.78;5036329;28;20044;-64
2023/07/25 10:53:21;;;;;;;11.95;8.45;;;;;;;33.19;39.24;99093.03;5035621;28;20053;-63
2023/07/25 10:56:08;;;;;;;12.88;8.50;;;;;;;33.27;39.10;99086.72;5034786;28;20094;-63
2023/07/25 10:58:37;;;;;;;11.55;8.77;;;;;;;33.43;38.93;99089.78;5045415;28;20099;-63
2023/07/25 11:01:03;;;;;;;13.35;8.85;;;;;;;33.45;38.65;99082.03;5056829;28;20158;-63
2023/07/25 11:03:31;;;;;;;15.35;9.02;;;;;;;33.57;38.91;99075.84;5058673;28;20033;-63
2023/07/25 11:06:05;;;;;;;11.25;8.77;;;;;;;33.60;39.10;99073.25;5058933;28;20051;-63
2023/07/25 11:08:32;;;;;;;9.95;8.15;;;;;;;33.66;38.88;99065.63;5059234;28;20064;-63
2023/07/25 11:11:05;;;;;;;10.70;7.95;;;;;;;33.71;38.16;99059.13;5059736;28;20321;-63
2023/07/25 11:13:33;;;;;;;10.75;8.20;;;;;;;33.78;39.28;99062.97;5059757;28;20230;-63
2023/07/25 11:16:01;;;;;;;12.07;8.13;;;;;;;33.87;38.75;99047.28;5059876;28;20222;-63
2023/07/25 11:18:27;;;;;;;10.45;8.32;;;;;;;33.90;38.03;99040.31;5060275;28;20033;-63
2023/07/25 11:20:59;;;;;;;12.48;8.35;;;;;;;33.97;38.88;99037.84;5060588;28;20029;-63
2023/07/25 11:23:25;;;;;;;8.98;7.43;;;;;;;33.97;37.42;99037.84;5059887;28;20258;-64